createdAt,value
2023-04-13T02:17:17.820Z,98773.27
2023-04-13T02:19:47.517Z,98780.23
2023-04-13T02:22:19.985Z,98785.39
2023-04-13T02:24:51.293Z,98778.65
2023-04-13T02:27:19.639Z,98771.14
2023-04-13T02:29:52.631Z,98763.06
2023-04-13T02:32:22.570Z,98764.06
2023-04-13T02:34:51.474Z,98769.54
2023-04-13T02:37:20.723Z,98772.58
2023-04-13T02:39:51.929Z,98765.83
2023-04-13T02:42:20.533Z,98764.97
2023-04-13T02:44:50.479Z,98767.04
2023-04-13T02:47:28.768Z,98765.95
2023-04-13T02:50:03.398Z,98761.80
2023-04-13T02:52:39.896Z,98769.60
2023-04-13T02:55:09.485Z,98778.52
2023-04-13T02:57:51.876Z,98778.42
2023-04-13T03:00:21.986Z,98772.69
2023-04-13T03:03:17.126Z,98770.70
2023-04-13T03:05:50.678Z,98765.29
2023-04-13T03:08:22.677Z,98764.55
2023-04-13T03:11:02.318Z,98765.88
2023-04-13T03:13:30.913Z,98769.55
2023-04-13T03:16:00.752Z,98777.61
2023-04-13T03:18:29.267Z,98780.39
2023-04-13T03:20:57.972Z,98783.98
2023-04-13T03:23:30.774Z,98784.98
2023-04-13T03:25:59.184Z,98782.38
2023-04-13T03:28:30.794Z,98780.71
2023-04-13T03:30:59.570Z,98788.65
2023-04-13T03:33:29.062Z,98791.86
2023-04-13T03:35:57.755Z,98799.70
2023-04-13T03:38:32.788Z,98801.23
2023-04-13T03:41:03.858Z,98806.95
2023-04-13T03:43:33.575Z,98807.54
2023-04-13T03:46:09.073Z,98808.11
2023-04-13T03:48:41.781Z,98808.23
2023-04-13T03:51:11.723Z,98808.05
2023-04-13T03:53:49.898Z,98808.98
2023-04-13T03:56:21.442Z,98809.71
2023-04-13T03:58:51.497Z,98808.83
2023-04-13T04:01:24.153Z,98805.26
2023-04-13T04:03:58.496Z,98803.88
2023-04-13T04:06:29.073Z,98803.20
2023-04-13T04:09:13.119Z,98806.66
2023-04-13T04:11:45.172Z,98810.39
2023-04-13T04:14:13.962Z,98808.86
2023-04-13T04:16:51.765Z,98817.57
2023-04-13T04:19:20.704Z,98821.54
2023-04-13T04:21:49.865Z,98818.27
2023-04-13T04:24:27.641Z,98819.95
2023-04-13T04:27:00.461Z,98828.38
2023-04-13T04:29:34.647Z,98834.96
2023-04-13T04:32:27.913Z,98839.21
2023-04-13T04:34:56.681Z,98841.86
2023-04-13T04:37:26.263Z,98845.13
2023-04-13T04:40:02.071Z,98845.63
2023-04-13T04:42:31.009Z,98846.10
2023-04-13T04:45:05.582Z,98846.63
2023-04-13T04:47:42.201Z,98844.16
2023-04-13T04:50:17.949Z,98841.02
2023-04-13T04:52:58.788Z,98836.25
2023-04-13T04:55:37.461Z,98834.02
2023-04-13T04:58:13.246Z,98826.54
2023-04-13T05:03:35.885Z,98813.73
2023-04-13T05:06:27.726Z,98812.89
2023-04-13T05:09:04.378Z,98822.64
2023-04-13T05:12:03.249Z,98826.02
2023-04-13T05:14:49.437Z,98819.06
2023-04-13T05:17:49.850Z,98823.56
2023-04-13T05:20:21.405Z,98823.20
2023-04-13T05:23:05.454Z,98824.58
2023-04-13T05:26:01.745Z,98823.77
2023-04-13T05:28:46.621Z,98825.58
2023-04-13T05:31:50.828Z,98827.70
2023-04-13T05:34:24.289Z,98833.30
2023-04-13T05:37:09.105Z,98833.60
2023-04-13T05:39:45.397Z,98834.53
2023-04-13T05:42:27.360Z,98834.45
2023-04-13T05:44:57.230Z,98834.91
2023-04-13T05:47:59.181Z,98835.89
2023-04-13T05:51:05.166Z,98838.71
2023-04-13T05:53:39.645Z,98836.39
2023-04-13T05:56:16.742Z,98836.52
2023-04-13T05:58:55.052Z,98830.70
2023-04-13T06:01:31.799Z,98828.08
2023-04-13T06:04:09.186Z,98833.96
2023-04-13T06:06:50.071Z,98835.48
2023-04-13T06:09:27.990Z,98838.70
2023-04-13T06:12:09.853Z,98839.79
2023-04-13T06:14:43.691Z,98846.51
2023-04-13T06:17:22.544Z,98843.73
2023-04-13T06:20:01.593Z,98842.98
2023-04-13T06:22:33.564Z,98843.48
2023-04-13T06:25:08.408Z,98852.00
2023-04-13T06:27:45.261Z,98853.92
2023-04-13T06:30:18.811Z,98850.79
2023-04-13T06:32:58.357Z,98849.45
2023-04-13T06:35:33.387Z,98854.86
2023-04-13T06:38:10.071Z,98858.79
2023-04-13T06:41:14.043Z,98863.19
2023-04-13T06:44:01.142Z,98865.73
2023-04-13T06:46:44.798Z,98872.73
2023-04-13T06:49:43.971Z,98874.77
2023-04-13T06:52:48.773Z,98877.09
2023-04-13T06:55:32.957Z,98877.02
2023-04-13T06:58:19.357Z,98882.56
2023-04-13T07:01:43.532Z,98878.38
2023-04-13T07:04:34.589Z,98876.45
2023-04-13T07:07:13.380Z,98871.38
2023-04-13T07:10:00.623Z,98866.21
2023-04-13T07:12:45.512Z,98867.55
2023-04-13T07:18:12.545Z,98876.63
2023-04-13T07:20:57.160Z,98875.19
2023-04-13T07:23:39.617Z,98878.12
2023-04-13T07:30:09.264Z,98874.64
2023-04-13T07:33:47.359Z,98870.08
2023-04-13T07:40:47.523Z,98877.16
2023-04-13T07:43:53.898Z,98881.33
2023-04-13T07:47:10.961Z,98880.96
2023-04-13T07:50:25.422Z,98890.26
2023-04-13T07:55:51.104Z,98896.38
2023-04-13T08:02:30.552Z,98904.16
2023-04-13T08:05:31.327Z,98906.05
2023-04-13T08:08:02.926Z,98909.23
2023-04-13T08:10:36.966Z,98910.81
2023-04-13T08:13:10.323Z,98909.80
2023-04-13T08:15:49.866Z,98908.63
2023-04-13T08:18:24.501Z,98911.60
2023-04-13T08:21:00.878Z,98912.55
2023-04-13T08:23:33.251Z,98915.40
2023-04-13T08:26:44.621Z,98915.86
2023-04-13T08:29:44.105Z,98917.77
2023-04-13T08:32:50.866Z,98914.80
2023-04-13T08:35:28.202Z,98909.21
2023-04-13T08:38:07.400Z,98916.58
2023-04-13T08:40:50.324Z,98918.63
2023-04-13T08:43:55.796Z,98918.75
2023-04-13T08:46:56.972Z,98919.60
2023-04-13T08:49:40.791Z,98911.33
2023-04-13T08:52:36.313Z,98909.60
2023-04-13T08:55:13.070Z,98910.45
2023-04-13T08:58:11.344Z,98910.98
2023-04-13T09:01:20.838Z,98913.44
2023-04-13T09:04:14.798Z,98913.96
2023-04-13T09:06:54.299Z,98916.85
2023-04-13T09:09:29.244Z,98916.61
2023-04-13T09:12:21.221Z,98919.27
2023-04-13T09:15:54.628Z,98919.27
2023-04-13T09:23:06.583Z,98923.70
2023-04-13T09:26:12.368Z,98925.19
2023-04-13T09:30:16.202Z,98927.68
2023-04-13T09:33:41.295Z,98927.08
2023-04-13T09:36:53.960Z,98926.69
2023-04-13T09:39:52.133Z,98929.71
2023-04-13T09:56:02.798Z,98931.45
2023-04-13T09:59:04.674Z,98930.63
2023-04-13T10:02:30.030Z,98937.05
2023-04-13T10:05:14.203Z,98938.89
2023-04-13T10:08:36.737Z,98935.09
2023-04-13T10:11:54.875Z,98937.95
2023-04-13T10:14:55.074Z,98940.92
2023-04-13T10:17:51.236Z,98945.40
2023-04-13T10:20:36.441Z,98946.26
2023-04-13T10:23:06.400Z,98945.61
2023-04-13T10:25:58.994Z,98945.21
2023-04-13T10:28:42.967Z,98950.38
2023-04-13T10:31:38.560Z,98954.80
2023-04-13T10:34:28.893Z,98959.63
2023-04-13T10:37:09.648Z,98958.55
2023-04-13T10:39:47.883Z,98958.86
2023-04-13T10:42:53.201Z,98960.91
2023-04-13T10:45:52.984Z,98961.40
2023-04-13T10:49:12.966Z,98961.30
2023-04-13T10:52:25.301Z,98958.59
2023-04-13T10:55:00.518Z,98959.84
2023-04-13T10:57:46.775Z,98962.94
2023-04-13T11:00:42.358Z,98971.69
2023-04-13T11:03:53.186Z,98973.41
2023-04-13T11:06:44.137Z,98976.16
2023-04-13T11:13:52.210Z,98982.17
2023-04-13T11:16:50.115Z,98986.30
2023-04-13T11:19:55.047Z,98992.60
2023-04-13T11:22:47.680Z,98990.50
2023-04-13T11:25:22.409Z,98987.73
2023-04-13T11:28:15.414Z,98983.30
2023-04-13T11:31:14.160Z,98987.13
2023-04-13T11:39:53.038Z,98994.83
2023-04-13T11:42:22.650Z,98992.45
2023-04-13T11:44:51.387Z,98990.74
2023-04-13T11:47:19.987Z,98994.94
2023-04-13T11:49:51.880Z,98994.06
2023-04-13T11:52:20.185Z,98995.65
2023-04-13T11:54:49.846Z,98997.67
2023-04-13T11:57:19.423Z,98999.96
2023-04-13T11:59:52.870Z,99001.66
2023-04-13T12:02:33.733Z,99002.90
2023-04-13T12:05:03.049Z,98999.23
2023-04-13T12:07:33.564Z,99005.73
2023-04-13T12:10:08.084Z,99010.58
2023-04-13T12:15:25.059Z,99009.65
2023-04-13T12:18:14.314Z,99013.09
2023-04-13T12:20:48.819Z,99014.45
2023-04-13T12:23:22.841Z,99018.37
2023-04-13T12:26:32.214Z,99023.33
2023-04-13T12:29:24.801Z,99021.85
2023-04-13T12:31:53.401Z,99021.52
2023-04-13T12:34:27.034Z,99021.98
2023-04-13T12:36:58.518Z,99023.27
2023-04-13T12:39:28.139Z,99023.88
2023-04-13T12:41:57.322Z,99021.39
2023-04-13T12:44:34.590Z,99021.23
2023-04-13T12:47:04.246Z,99020.10
2023-04-13T12:49:34.747Z,99021.24
2023-04-13T12:52:03.075Z,99018.31
2023-04-13T12:54:33.620Z,99017.33
2023-04-13T12:57:03.786Z,99020.83
2023-04-13T12:59:33.770Z,99024.23
2023-04-13T13:02:02.131Z,99025.41
2023-04-13T13:04:35.253Z,99032.77
2023-04-13T13:07:04.529Z,99033.21
2023-04-13T13:09:33.314Z,99036.19
2023-04-13T13:12:09.808Z,99033.17
2023-04-13T13:14:43.527Z,99032.13
2023-04-13T13:17:12.283Z,99034.21
2023-04-13T13:19:40.853Z,99033.10
2023-04-13T13:22:09.316Z,99033.09
2023-04-13T13:24:39.813Z,99036.57
2023-04-13T13:29:43.830Z,99039.02
2023-04-13T13:32:14.374Z,99042.21
2023-04-13T13:34:45.498Z,99039.37
2023-04-13T13:37:14.174Z,99037.38
2023-04-13T13:39:47.068Z,99040.94
2023-04-13T13:42:16.518Z,99038.96
2023-04-13T13:44:44.968Z,99042.06
2023-04-13T13:47:20.486Z,99039.00
2023-04-13T13:49:51.912Z,99035.93
2023-04-13T13:52:30.741Z,99036.33
2023-04-13T13:54:59.584Z,99034.10
2023-04-13T13:57:30.146Z,99036.73
2023-04-13T13:59:59.378Z,99036.13
2023-04-13T14:02:27.805Z,99039.11
2023-04-13T14:04:56.089Z,99036.13
2023-04-13T14:07:30.146Z,99039.27
2023-04-13T14:10:05.132Z,99038.26
2023-04-13T14:12:55.954Z,99037.34
2023-04-13T14:15:29.402Z,99037.77
2023-04-13T14:18:10.374Z,99037.13
2023-04-13T14:20:51.740Z,99041.81
2023-04-13T14:23:29.305Z,99044.49
2023-04-13T14:25:59.347Z,99046.05
2023-04-13T14:28:28.157Z,99043.95
2023-04-13T14:31:01.691Z,99046.77
2023-04-13T14:33:32.815Z,99044.15
2023-04-13T14:36:01.819Z,99044.87
2023-04-13T14:38:30.689Z,99042.73
2023-04-13T14:41:01.335Z,99048.63
2023-04-13T14:43:30.500Z,99048.02
2023-04-13T14:46:18.781Z,99046.95
2023-04-13T14:48:50.161Z,99047.45
2023-04-13T14:51:19.198Z,99049.65
2023-04-13T14:53:48.061Z,99056.10
2023-04-13T14:56:16.698Z,99059.11
2023-04-13T14:58:45.268Z,99056.96
2023-04-13T15:01:18.235Z,99058.02
2023-04-13T15:03:47.440Z,99056.37
2023-04-13T15:06:17.344Z,99058.11
2023-04-13T15:08:46.461Z,99059.34
2023-04-13T15:11:19.150Z,99067.91
2023-04-13T15:13:49.872Z,99067.16
2023-04-13T15:16:18.208Z,99069.77
2023-04-13T15:18:46.384Z,99067.61
2023-04-13T15:21:14.403Z,99067.03
2023-04-13T15:23:42.867Z,99066.77
2023-04-13T15:26:18.349Z,99068.75
2023-04-13T15:28:50.823Z,99070.79
2023-04-13T15:31:21.292Z,99071.14
2023-04-13T15:33:49.506Z,99081.02
2023-04-13T15:36:19.172Z,99089.09
2023-04-13T15:38:47.644Z,99086.05
2023-04-13T15:41:16.306Z,99086.47
2023-04-13T15:43:45.960Z,99094.73
2023-04-13T15:46:14.080Z,99093.50
2023-04-13T15:48:42.708Z,99098.20
2023-04-13T15:51:12.673Z,99100.71
2023-04-13T15:53:42.222Z,99102.45
2023-04-13T15:56:10.578Z,99104.56
2023-04-13T15:58:38.784Z,99108.85
2023-04-13T16:01:10.703Z,99112.77
2023-04-13T16:03:40.608Z,99116.86
2023-04-13T16:06:08.892Z,99117.21
2023-04-13T16:08:39.045Z,99118.98
2023-04-13T16:11:07.767Z,99116.22
2023-04-13T16:13:48.060Z,99118.52
2023-04-13T16:16:23.926Z,99115.64
2023-04-13T16:19:00.666Z,99120.77
2023-04-13T16:21:30.502Z,99121.33
2023-04-13T16:23:58.767Z,99121.04
2023-04-13T16:26:29.683Z,99122.41
2023-04-13T16:28:58.265Z,99123.48
2023-04-13T16:31:27.320Z,99124.95
2023-04-13T16:33:57.111Z,99126.51
2023-04-13T16:36:26.066Z,99128.91
2023-04-13T16:38:54.198Z,99125.02
2023-04-13T16:41:22.424Z,99132.60
2023-04-13T16:43:51.258Z,99131.24
2023-04-13T16:46:22.585Z,99132.73
2023-04-13T16:48:51.998Z,99133.06
2023-04-13T16:51:20.537Z,99134.55
2023-04-13T16:53:49.163Z,99138.70
2023-04-13T16:56:19.762Z,99134.73
2023-04-13T16:58:49.199Z,99134.15
2023-04-13T17:01:17.268Z,99137.20
2023-04-13T17:03:45.720Z,99144.25
2023-04-13T17:06:14.463Z,99146.70
2023-04-13T17:08:45.078Z,99150.71
2023-04-13T17:11:13.106Z,99158.10
2023-04-13T17:13:42.481Z,99162.33
2023-04-13T17:16:14.612Z,99163.05
2023-04-13T17:18:44.120Z,99168.27
2023-04-13T17:21:12.346Z,99172.23
2023-04-13T17:23:41.176Z,99174.52
2023-04-13T17:26:15.268Z,99175.84
2023-04-13T17:28:43.828Z,99179.96
2023-04-13T17:31:11.717Z,99184.24
2023-04-13T17:33:41.294Z,99184.75
2023-04-13T17:36:10.745Z,99188.09
2023-04-13T17:38:38.975Z,99189.58
2023-04-13T17:41:12.726Z,99192.63
2023-04-13T17:43:40.814Z,99188.57
2023-04-13T17:46:09.367Z,99188.87
2023-04-13T17:48:37.570Z,99192.86
2023-04-13T17:51:11.314Z,99190.98
2023-04-13T17:53:39.765Z,99190.61
2023-04-13T17:56:15.445Z,99193.02
2023-04-13T17:58:43.554Z,99191.76
2023-04-13T18:01:11.614Z,99196.61
2023-04-13T18:03:47.673Z,99198.13
2023-04-13T18:06:15.971Z,99195.69
2023-04-13T18:08:44.213Z,99196.77
2023-04-13T18:11:12.501Z,99200.21
2023-04-13T18:13:43.805Z,99201.89
2023-04-13T18:16:14.448Z,99201.84
2023-04-13T18:18:43.094Z,99206.23
2023-04-13T18:21:19.644Z,99205.78
2023-04-13T18:23:48.064Z,99203.95
2023-04-13T18:26:16.494Z,99203.05
2023-04-13T18:28:44.981Z,99204.70
2023-04-13T18:31:13.633Z,99201.75
2023-04-13T18:33:42.255Z,99206.36
2023-04-13T18:36:10.111Z,99203.02
2023-04-13T18:38:40.974Z,99201.73
2023-04-13T18:41:09.686Z,99204.03
2023-04-13T18:43:37.982Z,99204.39
2023-04-13T18:46:07.053Z,99206.65
2023-04-13T18:48:36.095Z,99205.80
2023-04-13T18:51:09.969Z,99206.66
2023-04-13T18:53:39.668Z,99207.58
2023-04-13T18:56:07.601Z,99203.78
2023-04-13T18:58:36.023Z,99202.29
2023-04-13T19:01:04.299Z,99201.04
2023-04-13T19:03:33.206Z,99199.63
2023-04-13T19:06:03.393Z,99203.52
2023-04-13T19:08:33.825Z,99203.00
2023-04-13T19:11:01.907Z,99201.77
2023-04-13T19:13:30.356Z,99202.34
2023-04-13T19:16:06.849Z,99204.35
2023-04-13T19:18:36.747Z,99203.77
2023-04-13T19:21:06.609Z,99205.77
2023-04-13T19:23:40.282Z,99204.78
2023-04-13T19:26:10.894Z,99209.16
2023-04-13T19:28:39.428Z,99207.16
2023-04-13T19:31:07.434Z,99213.02
2023-04-13T19:33:42.849Z,99215.38
2023-04-13T19:36:11.523Z,99217.14
2023-04-13T19:38:39.546Z,99218.85
2023-04-13T19:41:08.446Z,99217.83
2023-04-13T19:43:37.437Z,99223.16
2023-04-13T19:46:05.708Z,99223.42
2023-04-13T19:48:34.664Z,99226.86
2023-04-13T19:51:02.885Z,99226.64
2023-04-13T19:53:32.550Z,99227.35
2023-04-13T19:56:01.860Z,99229.86
2023-04-13T19:58:30.393Z,99226.78
2023-04-13T20:01:06.291Z,99225.98
2023-04-13T20:03:36.985Z,99229.59
2023-04-13T20:06:06.043Z,99229.62
2023-04-13T20:08:35.714Z,99234.27
2023-04-13T20:11:08.338Z,99232.59
2023-04-13T20:13:38.259Z,99235.05
2023-04-13T20:16:06.564Z,99235.85
2023-04-13T20:18:34.587Z,99239.19
2023-04-13T20:21:03.278Z,99239.44
2023-04-13T20:23:33.202Z,99239.24
2023-04-13T20:26:04.670Z,99238.11
2023-04-13T20:28:36.268Z,99233.73
2023-04-13T20:31:04.472Z,99233.31
2023-04-13T20:33:34.581Z,99235.99
2023-04-13T20:36:03.250Z,99235.77
2023-04-13T20:38:31.257Z,99236.16
2023-04-13T20:40:59.435Z,99235.17
2023-04-13T20:43:27.906Z,99239.61
2023-04-13T20:45:57.392Z,99238.15
2023-04-13T20:51:08.013Z,99236.00
2023-04-13T20:53:38.293Z,99238.27
2023-04-13T20:56:09.274Z,99236.85
2023-04-13T20:58:38.164Z,99233.19
2023-04-13T21:01:06.895Z,99232.14
2023-04-13T21:03:38.653Z,99236.63
2023-04-13T21:06:07.752Z,99233.41
2023-04-13T21:08:38.886Z,99237.29
2023-04-13T21:11:10.750Z,99237.55
2023-04-13T21:13:38.771Z,99239.52
2023-04-13T21:16:08.567Z,99240.10
2023-04-13T21:18:41.979Z,99241.57
2023-04-13T21:21:09.912Z,99241.21
2023-04-13T21:23:38.644Z,99245.45
2023-04-13T21:26:13.417Z,99241.80
2023-04-13T21:28:42.117Z,99239.76
2023-04-13T21:31:10.094Z,99241.98
2023-04-13T21:33:39.887Z,99243.23
2023-04-13T21:38:44.158Z,99245.23
2023-04-13T21:41:18.530Z,99246.15
2023-04-13T21:43:46.508Z,99246.90
2023-04-13T21:46:15.387Z,99243.79
2023-04-13T21:48:43.509Z,99244.76
2023-04-13T21:51:11.455Z,99243.25
2023-04-13T21:53:40.536Z,99240.48
2023-04-13T21:56:08.647Z,99240.93
2023-04-13T21:58:45.416Z,99238.38
2023-04-13T22:01:13.780Z,99242.30
2023-04-13T22:03:45.991Z,99240.28
2023-04-13T22:06:14.516Z,99238.84
2023-04-13T22:08:48.700Z,99238.26
2023-04-13T22:11:16.660Z,99238.59
2023-04-13T22:13:44.659Z,99237.70
2023-04-13T22:16:14.635Z,99241.54
2023-04-13T22:18:42.864Z,99240.67
2023-04-13T22:21:11.483Z,99240.02
2023-04-13T22:23:43.594Z,99243.30
2023-04-13T22:26:11.747Z,99242.41
2023-04-13T22:28:39.663Z,99240.11
2023-04-13T22:31:08.619Z,99241.07
2023-04-13T22:33:40.438Z,99243.47
2023-04-13T22:36:19.994Z,99240.38
2023-04-13T22:38:48.593Z,99243.38
2023-04-13T22:41:16.870Z,99243.30
2023-04-13T22:43:44.801Z,99241.20
2023-04-13T22:46:14.124Z,99238.89
2023-04-13T22:48:42.742Z,99238.36
2023-04-13T22:51:11.029Z,99236.84
2023-04-13T22:53:39.241Z,99240.22
2023-04-13T22:56:07.404Z,99242.55
2023-04-13T22:58:35.432Z,99242.66
2023-04-13T23:01:03.866Z,99250.83
2023-04-13T23:03:33.609Z,99247.02
2023-04-13T23:06:04.694Z,99250.21
2023-04-13T23:08:33.410Z,99252.65
2023-04-13T23:11:09.508Z,99252.41
2023-04-13T23:13:37.525Z,99252.92
2023-04-13T23:16:08.181Z,99251.41
2023-04-13T23:18:36.588Z,99254.00
2023-04-13T23:21:12.094Z,99253.34
2023-04-13T23:23:40.137Z,99254.45
2023-04-13T23:26:07.999Z,99251.86
2023-04-13T23:28:36.113Z,99253.92
2023-04-13T23:31:06.958Z,99255.20
2023-04-13T23:33:36.713Z,99258.92
2023-04-13T23:36:05.290Z,99260.27
2023-04-13T23:38:36.390Z,99265.30
2023-04-13T23:41:05.903Z,99264.04
2023-04-13T23:43:34.218Z,99257.83
2023-04-13T23:46:02.999Z,99256.59
2023-04-13T23:48:31.946Z,99256.77
2023-04-13T23:50:59.855Z,99260.70
2023-04-13T23:53:29.069Z,99262.31
2023-04-13T23:55:57.002Z,99264.12
2023-04-13T23:58:25.406Z,99262.98
